Terminal Aerodrome Forecast
Issued by NWS

Home | Current Version | Previous Version | Text Only | Print | Product List | Glossary Off
Versions: 1 2 3 4 5 6 7 8 9 10 11 12 13 14

937
FTUS43 KABR 222323
TAFATY
TAF
KATY 222323Z 2300/2324 19013G24KT P6SM SKC
     FM230400 18015G22KT P6SM FEW250 WS020/19045KT
     FM231300 19015G23KT P6SM FEW250=

USA.gov is the U.S. government's official web portal to all federal, state and local government web resources and services.